createdAt,value
2019-06-01T00:00:11.064Z,16.99
2019-06-01T00:02:30.053Z,17.04
2019-06-01T00:05:00.496Z,17.03
2019-06-01T00:07:31.075Z,17.03
2019-06-01T00:10:01.539Z,15.69
2019-06-01T00:12:32.041Z,16.93
2019-06-01T00:15:02.533Z,16.89
2019-06-01T00:17:33.013Z,16.93
2019-06-01T00:20:03.462Z,17.00
2019-06-01T00:22:34.054Z,16.82
2019-06-01T00:25:04.900Z,16.91
2019-06-01T00:27:35.357Z,16.89
2019-06-01T00:30:06.457Z,16.86
2019-06-01T00:32:36.905Z,16.91
2019-06-01T00:35:08.102Z,16.78
2019-06-01T00:37:38.559Z,16.87
2019-06-01T00:40:09.369Z,16.85
2019-06-01T00:42:39.827Z,16.68
2019-06-01T00:45:10.729Z,16.56
2019-06-01T00:47:42.568Z,16.37
2019-06-01T00:50:13.451Z,16.36
2019-06-01T00:52:45.078Z,16.48
2019-06-01T00:55:15.767Z,16.60
2019-06-01T00:57:47.342Z,16.45
2019-06-01T01:00:18.310Z,16.59
2019-06-01T01:02:50.135Z,16.41
2019-06-01T01:05:21.657Z,16.53
2019-06-01T01:07:53.511Z,16.52
2019-06-01T01:10:24.618Z,16.40
2019-06-01T01:13:13.492Z,16.24
2019-06-01T01:15:45.130Z,16.26
2019-06-01T01:18:15.683Z,16.16
2019-06-01T01:20:46.173Z,16.22
2019-06-01T01:23:16.629Z,16.23
2019-06-01T01:25:48.119Z,15.96
2019-06-01T01:28:18.747Z,15.93
2019-06-01T01:31:02.685Z,16.20
2019-06-01T01:33:21.791Z,16.22
2019-06-01T01:35:52.920Z,16.31
2019-06-01T01:38:24.514Z,16.39
2019-06-01T01:40:56.186Z,16.46
2019-06-01T01:43:27.032Z,16.31
2019-06-01T01:45:57.507Z,16.33
2019-06-01T01:48:28.006Z,16.38
2019-06-01T01:50:58.630Z,16.35
2019-06-01T01:53:29.108Z,16.49
2019-06-01T01:55:59.645Z,16.56
2019-06-01T01:58:30.140Z,16.61
2019-06-01T02:01:17.980Z,16.61
2019-06-01T02:03:32.935Z,16.79
2019-06-01T02:06:03.495Z,16.94
2019-06-01T02:08:33.949Z,16.87
2019-06-01T02:11:04.440Z,16.97
2019-06-01T02:13:35.044Z,16.98
2019-06-01T02:16:05.612Z,16.89
2019-06-01T02:18:36.067Z,16.94
2019-06-01T02:21:06.662Z,17.06
2019-06-01T02:23:37.139Z,17.12
2019-06-01T02:26:07.589Z,17.05
2019-06-01T02:28:38.077Z,17.17
2019-06-01T02:31:08.646Z,16.98
2019-06-01T02:33:39.143Z,17.11
2019-06-01T02:36:09.599Z,17.06
2019-06-01T02:38:40.093Z,16.99
2019-06-01T02:41:10.735Z,16.85
2019-06-01T02:43:41.270Z,16.98
2019-06-01T02:46:11.729Z,16.79
2019-06-01T02:48:42.192Z,16.98
2019-06-01T02:51:12.668Z,16.95
2019-06-01T02:53:43.120Z,17.01
2019-06-01T02:56:13.563Z,17.04
2019-06-01T02:58:44.051Z,16.90
2019-06-01T03:01:32.364Z,16.95
2019-06-01T03:04:05.777Z,16.94
2019-06-01T03:06:37.449Z,16.83
2019-06-01T03:09:09.289Z,16.97
2019-06-01T03:11:41.751Z,17.07
2019-06-01T03:14:13.491Z,17.02
2019-06-01T03:16:44.521Z,16.93
2019-06-01T03:19:17.137Z,17.03
2019-06-01T03:21:50.637Z,16.86
2019-06-01T03:24:25.220Z,16.91
2019-06-01T03:26:56.348Z,16.97
2019-06-01T03:29:29.579Z,16.89
2019-06-01T03:32:20.591Z,16.85
2019-06-01T03:34:32.305Z,16.92
2019-06-01T03:37:03.302Z,17.13
2019-06-01T03:39:34.897Z,17.18
2019-06-01T03:42:05.496Z,17.28
2019-06-01T03:44:35.953Z,17.23
2019-06-01T03:47:07.554Z,17.38
2019-06-01T03:49:38.073Z,17.46
2019-06-01T03:52:08.929Z,17.67
2019-06-01T03:54:39.450Z,17.93
2019-06-01T03:57:11.154Z,18.07
2019-06-01T03:59:41.878Z,18.23
2019-06-01T04:02:15.214Z,18.56
2019-06-01T04:04:45.682Z,17.73
2019-06-01T04:07:16.177Z,18.75
2019-06-01T04:09:46.618Z,18.79
2019-06-01T04:12:17.107Z,18.68
2019-06-01T04:14:47.552Z,18.80
2019-06-01T04:17:18.034Z,19.22
2019-06-01T04:19:48.487Z,19.32
2019-06-01T04:22:19.013Z,19.36
2019-06-01T04:24:49.505Z,19.36
2019-06-01T04:27:20.009Z,19.65
2019-06-01T04:29:50.495Z,19.76
2019-06-01T04:32:21.036Z,19.94
2019-06-01T04:34:51.546Z,19.75
2019-06-01T04:37:21.987Z,19.68
2019-06-01T04:39:52.484Z,20.13
2019-06-01T04:42:23.016Z,20.17
2019-06-01T04:44:53.481Z,20.15
2019-06-01T04:47:23.975Z,20.26
2019-06-01T04:49:54.449Z,20.55
2019-06-01T04:52:24.956Z,20.53
2019-06-01T04:54:55.503Z,20.61
2019-06-01T04:57:25.963Z,20.82
2019-06-01T04:59:56.448Z,21.14
2019-06-01T05:02:26.932Z,21.01
2019-06-01T05:04:57.385Z,21.24
2019-06-01T05:07:27.840Z,21.05
2019-06-01T05:09:58.342Z,21.43
2019-06-01T05:12:28.831Z,21.12
2019-06-01T05:14:59.353Z,21.30
2019-06-01T05:17:29.909Z,21.63
2019-06-01T05:20:00.422Z,21.53
2019-06-01T05:22:30.887Z,21.66
2019-06-01T05:25:01.395Z,21.96
2019-06-01T05:27:31.940Z,21.47
2019-06-01T05:30:02.442Z,21.80
2019-06-01T05:32:32.903Z,21.93
2019-06-01T05:35:03.476Z,21.92
2019-06-01T05:37:34.055Z,21.90
2019-06-01T05:40:05.176Z,21.94
2019-06-01T05:42:35.638Z,21.99
2019-06-01T05:45:06.787Z,22.33
2019-06-01T05:47:37.257Z,22.13
2019-06-01T05:50:08.175Z,22.12
2019-06-01T05:52:38.678Z,22.09
2019-06-01T05:55:10.320Z,22.12
2019-06-01T05:57:41.014Z,22.34
2019-06-01T06:00:13.133Z,22.35
2019-06-01T06:02:43.676Z,22.37
2019-06-01T06:05:14.611Z,22.32
2019-06-01T06:07:45.252Z,22.26
2019-06-01T06:10:16.097Z,22.60
2019-06-01T06:12:46.576Z,22.68
2019-06-01T06:15:17.541Z,22.72
2019-06-01T06:17:48.099Z,22.75
2019-06-01T06:20:18.559Z,22.78
2019-06-01T06:22:49.025Z,22.90
2019-06-01T06:25:19.761Z,23.02
2019-06-01T06:27:50.227Z,22.83
2019-06-01T06:30:21.039Z,23.06
2019-06-01T06:32:51.552Z,22.94
2019-06-01T06:35:22.058Z,23.02
2019-06-01T06:37:52.705Z,23.39
2019-06-01T06:40:24.257Z,23.20
2019-06-01T06:42:54.753Z,23.47
2019-06-01T06:45:25.255Z,23.46
2019-06-01T06:47:55.758Z,23.33
2019-06-01T06:50:26.254Z,23.72
2019-06-01T06:52:56.705Z,23.24
2019-06-01T06:55:27.175Z,23.49
2019-06-01T06:57:57.664Z,23.59
2019-06-01T07:00:28.219Z,23.39
2019-06-01T07:02:58.683Z,23.54
2019-06-01T07:05:31.386Z,23.61
2019-06-01T07:08:01.401Z,23.60
2019-06-01T07:10:31.889Z,23.70
2019-06-01T07:13:02.348Z,23.50
2019-06-01T07:15:32.871Z,23.76
2019-06-01T07:18:03.309Z,23.95
2019-06-01T07:20:33.808Z,24.17
2019-06-01T07:23:04.263Z,24.43
2019-06-01T07:25:34.770Z,24.18
2019-06-01T07:28:05.418Z,24.23
2019-06-01T07:30:49.596Z,24.25
2019-06-01T07:33:08.059Z,24.49
2019-06-01T07:35:38.565Z,24.75
2019-06-01T07:38:09.052Z,24.83
2019-06-01T07:40:39.533Z,24.42
2019-06-01T07:43:10.018Z,24.46
2019-06-01T07:45:40.470Z,24.49
2019-06-01T07:48:10.974Z,24.68
2019-06-01T07:50:41.432Z,24.54
2019-06-01T07:53:11.922Z,24.73
2019-06-01T07:55:42.385Z,25.01
2019-06-01T07:58:12.854Z,24.89
2019-06-01T08:00:43.312Z,24.80
2019-06-01T08:03:13.817Z,24.80
2019-06-01T08:05:44.380Z,24.82
2019-06-01T08:08:14.839Z,25.15
2019-06-01T08:10:45.832Z,25.14
2019-06-01T08:13:16.295Z,24.64
2019-06-01T08:15:46.815Z,25.07
2019-06-01T08:18:17.263Z,25.22
2019-06-01T08:20:47.719Z,25.22
2019-06-01T08:23:18.208Z,25.59
2019-06-01T08:25:48.695Z,25.15
2019-06-01T08:28:19.148Z,25.24
2019-06-01T08:30:49.649Z,25.17
2019-06-01T08:33:20.103Z,25.67
2019-06-01T08:35:50.598Z,25.94
2019-06-01T08:38:21.076Z,26.02
2019-06-01T08:40:51.546Z,26.13
2019-06-01T08:43:23.471Z,25.86
2019-06-01T08:45:54.065Z,25.91
2019-06-01T08:48:25.650Z,25.47
2019-06-01T08:50:56.213Z,25.73
2019-06-01T08:53:27.854Z,25.73
2019-06-01T08:55:58.440Z,25.45
2019-06-01T08:58:30.146Z,25.15
2019-06-01T09:01:00.814Z,25.81
2019-06-01T09:03:31.873Z,25.84
2019-06-01T09:06:02.469Z,26.05
2019-06-01T09:08:33.279Z,26.31
2019-06-01T09:11:03.930Z,26.54
2019-06-01T09:13:35.501Z,26.36
2019-06-01T09:16:06.277Z,26.47
2019-06-01T09:18:36.791Z,26.71
2019-06-01T09:21:07.452Z,26.67
2019-06-01T09:23:38.046Z,26.52
2019-06-01T09:26:08.469Z,26.63
2019-06-01T09:28:39.008Z,26.44
2019-06-01T09:31:09.497Z,26.83
2019-06-01T09:33:39.983Z,26.91
2019-06-01T09:36:10.446Z,26.51
2019-06-01T09:38:41.038Z,26.60
2019-06-01T09:41:11.535Z,26.84
2019-06-01T09:43:42.076Z,27.06
2019-06-01T09:46:12.536Z,26.85
2019-06-01T09:48:43.017Z,27.08
2019-06-01T09:51:13.478Z,27.25
2019-06-01T09:53:44.006Z,26.95
2019-06-01T09:56:14.574Z,27.05
2019-06-01T09:58:45.082Z,26.95
2019-06-01T10:01:15.554Z,27.13
2019-06-01T10:03:46.054Z,27.40
2019-06-01T10:06:16.540Z,27.34
2019-06-01T10:08:47.042Z,27.32
2019-06-01T10:11:17.512Z,27.47
2019-06-01T10:13:48.016Z,27.54
2019-06-01T10:16:18.528Z,27.75
2019-06-01T10:18:49.001Z,27.38
2019-06-01T10:21:19.518Z,27.32
2019-06-01T10:23:50.099Z,27.61
2019-06-01T10:26:20.561Z,27.20
2019-06-01T10:28:51.033Z,27.66
2019-06-01T10:31:21.529Z,27.73
2019-06-01T10:33:52.148Z,27.60
2019-06-01T10:36:22.944Z,27.99
2019-06-01T10:38:53.391Z,28.25
2019-06-01T10:41:23.863Z,28.27
2019-06-01T10:43:54.414Z,28.53
2019-06-01T10:46:24.976Z,28.39
2019-06-01T10:48:55.445Z,28.16
2019-06-01T10:51:25.974Z,28.35
2019-06-01T11:01:32.252Z,28.50
2019-06-01T11:04:00.884Z,28.30
2019-06-01T11:06:40.225Z,27.81
2019-06-01T11:09:03.770Z,27.87
2019-06-01T11:11:35.151Z,27.80
2019-06-01T11:14:05.906Z,27.88
2019-06-01T11:16:37.310Z,28.04
2019-06-01T11:19:07.926Z,28.16
2019-06-01T11:21:39.537Z,27.87
2019-06-01T11:24:10.064Z,27.69
2019-06-01T11:26:41.809Z,28.10
2019-06-01T11:29:12.488Z,28.21
2019-06-01T11:31:44.198Z,28.14
2019-06-01T11:34:14.932Z,28.05
2019-06-01T11:37:03.571Z,28.41
2019-06-01T11:39:17.563Z,28.23
2019-06-01T11:41:48.114Z,27.93
2019-06-01T11:44:18.617Z,28.24
2019-06-01T11:46:49.232Z,28.00
2019-06-01T11:49:21.272Z,28.16
2019-06-01T11:51:52.040Z,28.39
2019-06-01T11:54:22.544Z,28.49
2019-06-01T11:56:53.048Z,28.63
2019-06-01T11:59:23.543Z,28.71
2019-06-01T12:01:54.159Z,28.73
2019-06-01T12:04:24.645Z,28.70
2019-06-01T12:06:55.182Z,28.60
2019-06-01T12:09:25.679Z,28.40
2019-06-01T12:11:56.171Z,28.49
2019-06-01T12:14:26.748Z,28.11
2019-06-01T12:16:57.246Z,28.17
2019-06-01T12:19:27.711Z,28.06
2019-06-01T12:21:58.203Z,27.92
2019-06-01T12:24:28.665Z,27.92
2019-06-01T12:26:59.166Z,27.99
2019-06-01T12:29:29.632Z,27.83
2019-06-01T12:32:01.149Z,27.99
2019-06-01T12:34:31.610Z,28.17
2019-06-01T12:37:02.073Z,28.29
2019-06-01T12:39:32.588Z,28.26
2019-06-01T12:42:03.052Z,27.97
2019-06-01T12:44:33.554Z,27.84
2019-06-01T12:47:04.245Z,27.72
2019-06-01T12:49:34.755Z,27.57
2019-06-01T12:52:05.327Z,27.60
2019-06-01T12:54:35.832Z,27.57
2019-06-01T12:57:06.427Z,27.51
2019-06-01T12:59:36.890Z,27.76
2019-06-01T13:02:07.396Z,27.50
2019-06-01T13:04:37.895Z,27.62
2019-06-01T13:07:08.456Z,27.71
2019-06-01T13:09:38.980Z,27.94
2019-06-01T13:12:09.452Z,27.93
2019-06-01T13:14:41.120Z,28.09
2019-06-01T13:17:11.711Z,28.23
2019-06-01T13:19:43.260Z,28.24
2019-06-01T13:22:14.140Z,28.10
2019-06-01T13:24:45.768Z,28.43
2019-06-01T13:27:16.330Z,28.11
2019-06-01T13:29:47.844Z,28.29
2019-06-01T13:32:18.395Z,28.68
2019-06-01T13:34:49.225Z,28.65
2019-06-01T13:37:20.584Z,28.82
2019-06-01T13:39:57.499Z,29.06
2019-06-01T13:42:23.419Z,29.18
2019-06-01T13:44:54.084Z,29.06
2019-06-01T13:47:24.708Z,28.79
2019-06-01T13:49:55.155Z,28.79
2019-06-01T13:52:25.653Z,28.80
2019-06-01T13:54:56.125Z,28.64
2019-06-01T13:57:26.711Z,28.43
2019-06-01T13:59:57.296Z,28.38
2019-06-01T14:02:27.899Z,28.60
2019-06-01T14:04:58.392Z,28.69
2019-06-01T14:07:28.879Z,29.00
2019-06-01T14:09:59.469Z,28.77
2019-06-01T14:12:29.975Z,28.81
2019-06-01T14:15:00.468Z,28.76
2019-06-01T14:17:30.946Z,28.76
2019-06-01T14:20:01.436Z,28.62
2019-06-01T14:22:31.920Z,28.68
2019-06-01T14:25:12.406Z,28.68
2019-06-01T14:27:34.731Z,28.99
2019-06-01T14:30:05.939Z,28.94
2019-06-01T14:32:36.540Z,28.84
2019-06-01T14:35:07.387Z,28.93
2019-06-01T14:37:37.827Z,28.85
2019-06-01T14:40:09.648Z,28.43
2019-06-01T14:42:40.149Z,28.58
2019-06-01T14:45:11.168Z,28.65
2019-06-01T14:47:41.738Z,28.65
2019-06-01T14:50:12.285Z,28.51
2019-06-01T14:52:42.802Z,28.44
2019-06-01T14:55:13.451Z,28.23
2019-06-01T14:57:43.948Z,28.34
2019-06-01T15:00:16.105Z,28.23
2019-06-01T15:02:46.609Z,28.20
2019-06-01T15:05:17.664Z,27.93
2019-06-01T15:07:48.228Z,27.91
2019-06-01T15:10:18.996Z,27.74
2019-06-01T15:12:53.634Z,26.89
2019-06-01T15:15:21.912Z,27.69
2019-06-01T15:17:53.428Z,27.61
2019-06-01T15:20:24.012Z,27.50
2019-06-01T15:22:54.538Z,27.31
2019-06-01T15:25:25.029Z,27.53
2019-06-01T15:27:56.869Z,27.37
2019-06-01T15:30:27.376Z,27.53
2019-06-01T15:32:58.259Z,27.33
2019-06-01T15:35:28.851Z,27.31
2019-06-01T15:38:02.054Z,27.35
2019-06-01T15:40:31.545Z,27.33
2019-06-01T15:43:02.000Z,27.37
2019-06-01T15:45:32.475Z,27.37
2019-06-01T15:48:02.973Z,27.11
2019-06-01T15:50:33.577Z,27.18
2019-06-01T15:53:04.183Z,27.16
2019-06-01T15:55:34.684Z,27.10
2019-06-01T15:58:05.287Z,27.10
2019-06-01T16:00:35.755Z,27.08
2019-06-01T16:03:06.503Z,27.01
2019-06-01T16:05:36.959Z,26.85
2019-06-01T16:08:07.415Z,26.87
2019-06-01T16:10:37.917Z,26.78
2019-06-01T16:13:08.515Z,26.64
2019-06-01T16:15:38.977Z,26.15
2019-06-01T16:18:09.459Z,26.12
2019-06-01T16:20:39.952Z,25.89
2019-06-01T16:23:10.419Z,25.87
2019-06-01T16:25:40.945Z,25.75
2019-06-01T16:28:11.411Z,25.86
2019-06-01T16:30:41.894Z,25.94
2019-06-01T16:33:12.346Z,25.94
2019-06-01T16:35:42.852Z,25.96
2019-06-01T16:38:13.349Z,25.92
2019-06-01T16:40:43.844Z,25.27
2019-06-01T16:43:14.448Z,25.12
2019-06-01T16:45:44.894Z,24.93
2019-06-01T16:48:15.342Z,24.62
2019-06-01T16:50:45.935Z,24.68
2019-06-01T16:53:16.368Z,24.41
2019-06-01T16:55:46.859Z,24.47
2019-06-01T16:58:17.415Z,24.34
2019-06-01T17:00:47.913Z,24.24
2019-06-01T17:03:18.748Z,24.17
2019-06-01T17:05:49.389Z,23.76
2019-06-01T17:08:19.885Z,23.66
2019-06-01T17:10:50.640Z,23.64
2019-06-01T17:13:21.330Z,23.57
2019-06-01T17:15:51.824Z,23.37
2019-06-01T17:18:22.270Z,23.18
2019-06-01T17:20:54.486Z,23.28
2019-06-01T17:23:27.753Z,23.07
2019-06-01T17:25:58.406Z,23.05
2019-06-01T17:28:28.999Z,23.28
2019-06-01T17:31:00.087Z,23.32
2019-06-01T17:33:31.179Z,23.22
2019-06-01T17:36:02.819Z,23.21
2019-06-01T17:38:33.444Z,23.01
2019-06-01T17:41:04.296Z,23.05
2019-06-01T17:43:34.855Z,23.08
2019-06-01T17:46:05.709Z,23.05
2019-06-01T17:48:36.299Z,22.97
2019-06-01T17:51:06.787Z,23.16
2019-06-01T17:53:37.288Z,23.31
2019-06-01T17:56:08.164Z,23.40
2019-06-01T17:58:38.792Z,23.35
2019-06-01T18:01:09.935Z,23.43
2019-06-01T18:03:40.708Z,23.49
2019-06-01T18:06:12.806Z,23.49
2019-06-01T18:08:43.395Z,23.51
2019-06-01T18:11:13.864Z,23.40
2019-06-01T18:13:44.367Z,23.26
2019-06-01T18:16:14.955Z,23.35
2019-06-01T18:18:45.519Z,23.23
2019-06-01T18:21:16.171Z,23.14
2019-06-01T18:23:49.165Z,23.03
2019-06-01T18:26:19.008Z,23.12
2019-06-01T18:28:49.583Z,22.77
2019-06-01T18:31:20.175Z,22.90
2019-06-01T18:33:53.428Z,22.80
2019-06-01T18:36:23.119Z,22.94
2019-06-01T18:38:53.632Z,23.00
2019-06-01T18:41:24.299Z,22.96
2019-06-01T18:43:54.794Z,22.81
2019-06-01T18:46:25.403Z,22.79
2019-06-01T18:48:55.943Z,22.71
2019-06-01T18:51:26.542Z,22.79
2019-06-01T18:53:57.018Z,22.84
2019-06-01T18:56:27.590Z,22.95
2019-06-01T18:58:58.080Z,22.99
2019-06-01T19:01:28.550Z,22.96
2019-06-01T19:03:59.084Z,22.81
2019-06-01T19:06:29.543Z,22.90
2019-06-01T19:09:00.025Z,22.97
2019-06-01T19:11:35.993Z,22.95
2019-06-01T19:14:02.676Z,22.98
2019-06-01T19:16:33.146Z,23.03
2019-06-01T19:19:03.633Z,22.79
2019-06-01T19:21:34.142Z,22.77
2019-06-01T19:24:04.800Z,22.60
2019-06-01T19:26:35.387Z,22.64
2019-06-01T19:29:06.722Z,22.67
2019-06-01T19:31:37.268Z,22.62
2019-06-01T19:34:08.859Z,22.68
2019-06-01T19:36:40.406Z,22.66
2019-06-01T19:39:11.183Z,22.59
2019-06-01T19:41:45.247Z,22.59
2019-06-01T19:44:13.832Z,22.53
2019-06-01T19:46:44.282Z,22.51
2019-06-01T19:49:14.982Z,22.47
2019-06-01T19:51:45.526Z,22.42
2019-06-01T19:54:16.985Z,22.34
2019-06-01T19:56:47.512Z,22.26
2019-06-01T19:59:18.108Z,22.24
2019-06-01T20:01:48.652Z,22.23
2019-06-01T20:04:19.158Z,22.14
2019-06-01T20:06:49.663Z,22.09
2019-06-01T20:09:21.305Z,22.02
2019-06-01T20:12:01.236Z,21.96
2019-06-01T20:14:23.991Z,21.87
2019-06-01T20:16:54.460Z,21.73
2019-06-01T20:19:25.032Z,21.85
2019-06-01T20:21:55.499Z,21.89
2019-06-01T20:24:25.948Z,21.69
2019-06-01T20:26:56.439Z,21.55
2019-06-01T20:29:26.891Z,21.45
2019-06-01T20:31:57.433Z,21.25
2019-06-01T20:34:27.927Z,21.21
2019-06-01T20:36:58.408Z,20.82
2019-06-01T20:39:28.864Z,20.80
2019-06-01T20:41:59.344Z,20.92
2019-06-01T20:44:29.820Z,20.85
2019-06-01T20:47:00.290Z,20.83
2019-06-01T20:49:30.786Z,20.94
2019-06-01T20:52:01.241Z,20.73
2019-06-01T20:54:31.732Z,20.88
2019-06-01T20:57:02.172Z,20.95
2019-06-01T20:59:32.663Z,20.96
2019-06-01T21:02:03.116Z,21.01
2019-06-01T21:04:33.583Z,21.18
2019-06-01T21:07:04.193Z,21.20
2019-06-01T21:09:34.640Z,21.24
2019-06-01T21:12:05.334Z,21.37
2019-06-01T21:14:37.039Z,21.48
2019-06-01T21:17:07.584Z,21.60
2019-06-01T21:19:38.152Z,21.69
2019-06-01T21:22:08.584Z,21.72
2019-06-01T21:24:39.071Z,21.76
2019-06-01T21:27:09.525Z,21.66
2019-06-01T21:29:40.045Z,21.48
2019-06-01T21:32:10.684Z,21.61
2019-06-01T21:34:41.272Z,21.67
2019-06-01T21:37:11.792Z,21.58
2019-06-01T21:39:42.252Z,21.60
2019-06-01T21:42:12.747Z,21.64
2019-06-01T21:44:43.200Z,21.64
2019-06-01T21:47:15.545Z,21.64
2019-06-01T21:49:45.990Z,21.61
2019-06-01T21:52:17.680Z,21.61
2019-06-01T21:54:48.109Z,21.60
2019-06-01T21:57:18.613Z,21.50
2019-06-01T21:59:49.072Z,21.54
2019-06-01T22:02:21.090Z,21.49
2019-06-01T22:04:51.771Z,21.51
2019-06-01T22:07:23.244Z,21.53
2019-06-01T22:09:53.809Z,20.97
2019-06-01T22:12:24.259Z,21.46
2019-06-01T22:14:54.775Z,21.33
2019-06-01T22:17:25.847Z,21.28
2019-06-01T22:19:56.386Z,21.40
2019-06-01T22:22:28.121Z,21.44
2019-06-01T22:24:58.768Z,21.07
2019-06-01T22:27:29.215Z,21.18
2019-06-01T22:29:59.671Z,21.19
2019-06-01T22:32:31.818Z,21.23
2019-06-01T22:35:03.097Z,21.28
2019-06-01T22:37:33.887Z,21.25
2019-06-01T22:40:04.537Z,21.32
2019-06-01T22:42:35.025Z,21.26
2019-06-01T22:45:06.520Z,21.38
2019-06-01T22:47:36.983Z,21.32
2019-06-01T22:50:07.903Z,21.25
2019-06-01T22:52:38.339Z,21.21
2019-06-01T22:55:09.038Z,21.26
2019-06-01T22:57:42.972Z,21.08
2019-06-01T23:00:12.180Z,21.16
2019-06-01T23:02:42.633Z,21.16
2019-06-01T23:05:13.403Z,21.20
2019-06-01T23:07:43.945Z,21.12
2019-06-01T23:10:14.842Z,21.25
2019-06-01T23:12:45.291Z,21.28
2019-06-01T23:15:15.896Z,21.28
2019-06-01T23:17:46.350Z,21.28
2019-06-01T23:20:17.061Z,21.22
2019-06-01T23:22:47.496Z,21.25
2019-06-01T23:25:17.941Z,21.05
2019-06-01T23:27:48.432Z,21.12
2019-06-01T23:30:18.971Z,21.13
2019-06-01T23:32:49.731Z,21.12
2019-06-01T23:35:20.222Z,21.12
2019-06-01T23:37:50.675Z,21.13
2019-06-01T23:40:22.378Z,21.15
2019-06-01T23:42:52.883Z,21.08
2019-06-01T23:45:24.566Z,21.11
2019-06-01T23:47:55.084Z,21.07
2019-06-01T23:50:25.538Z,21.07
2019-06-01T23:53:10.416Z,21.04
2019-06-01T23:55:28.173Z,21.04
2019-06-01T23:57:58.632Z,21.03
